Time;durP1;ratioP1;P1;durP2;ratioP2;P2;SDS_P1;SDS_P2;PMS_P1;PMS_P2;Temp;Humidity;BMP_temperature;BMP_pressure;BME280_temperature;BME280_humidity;BME280_pressure;Samples;Min_cycle;Max_cycle;Signal;HPM_P1;HPM_P2
2022/06/22 00:01:40;;;;;;;;;;;;;;;-146.27;100.00;64033.13;5091747;28;19919;-37
2022/06/22 00:04:06;;;;;;;;;;;;;;;-146.27;100.00;64033.13;5091651;28;20275;-37
2022/06/22 00:06:40;;;;;;;;;;;;;;;-146.27;100.00;64033.13;5091827;28;19923;-36
2022/06/22 00:09:06;;;;;;;;;;;;;;;-146.27;100.00;64033.13;5091878;28;19935;-37
2022/06/22 00:11:32;;;;;;;;;;;;;;;-146.27;100.00;64033.13;5091323;28;20383;-37
2022/06/22 00:13:59;;;;;;;;;;;;;;;-146.27;100.00;64033.13;5091432;28;20372;-37
2022/06/22 00:16:29;;;;;;;;;;;;;;;-146.27;100.00;64033.13;5091888;28;19923;-38
2022/06/22 00:18:56;;;;;;;;;;;;;;;-146.27;100.00;64033.13;5091673;28;19954;-38
2022/06/22 00:21:30;;;;;;;;;;;;;;;-146.27;100.00;64033.13;5105821;28;20291;-38
2022/06/22 00:23:57;;;;;;;;;;;;;;;-146.27;100.00;64033.13;5111408;28;19915;-39
2022/06/22 00:26:23;;;;;;;;;;;;;;;-146.27;100.00;64033.13;5111887;28;19923;-38
2022/06/22 00:29:00;;;;;;;;;;;;;;;-146.27;100.00;64033.13;5111992;28;19919;-38
2022/06/22 00:31:35;;;;;;;;;;;;;;;-146.27;100.00;64033.13;5111541;28;19943;-38
2022/06/22 00:34:23;;;;;;;;;;;;;;;-146.27;100.00;64033.13;5112173;28;19915;-38
2022/06/22 00:36:57;;;;;;;;;;;;;;;-146.27;100.00;64033.13;5108323;28;19924;-38
2022/06/22 00:39:22;;;;;;;;;;;;;;;-146.27;100.00;64033.13;5111681;28;19911;-38
2022/06/22 00:41:52;;;;;;;;;;;;;;;-146.27;100.00;64033.13;5111191;28;19980;-38
2022/06/22 00:44:18;;;;;;;;;;;;;;;-146.27;100.00;64033.13;5111530;28;20002;-37
2022/06/22 00:46:47;;;;;;;;;;;;;;;-146.27;100.00;64033.13;5111017;28;20031;-38
2022/06/22 00:49:17;;;;;;;;;;;;;;;-146.27;100.00;64033.13;5111453;28;20041;-37
2022/06/22 00:51:42;;;;;;;;;;;;;;;-146.27;100.00;64033.13;5111296;28;20003;-38
2022/06/22 00:54:10;;;;;;;;;;;;;;;-146.27;100.00;64033.13;5111590;28;20481;-37
2022/06/22 00:56:36;;;;;;;;;;;;;;;-146.27;100.00;64033.13;5101841;28;20010;-38
2022/06/22 00:59:10;;;;;;;;;;;;;;;-146.27;100.00;64033.13;5090766;28;20360;-38
2022/06/22 01:01:44;;;;;;;;;;;;;;;-146.27;100.00;64033.13;5090941;28;19912;-38
2022/06/22 01:04:12;;;;;;;;;;;;;;;-146.27;100.00;64033.13;5090924;28;19913;-38
2022/06/22 01:06:52;;;;;;;;;;;;;;;-146.27;100.00;64033.13;5090759;28;19923;-38
2022/06/22 01:09:26;;;;;;;;;;;;;;;-146.27;100.00;64033.13;5090975;28;19923;-38
2022/06/22 01:14:57;;;;;;;;;;;;;;;-146.27;100.00;64033.13;5090931;28;19999;-38
2022/06/22 01:17:48;;;;;;;;;;;;;;;-146.27;100.00;64033.13;5090831;28;20007;-39
2022/06/22 01:20:28;;;;;;;;;;;;;;;-146.27;100.00;64033.13;5074538;28;19916;-38
2022/06/22 01:22:54;;;;;;;;;;;;;;;-146.27;100.00;64033.13;5090686;28;19912;-39
2022/06/22 01:25:28;;;;;;;;;;;;;;;-146.27;100.00;64033.13;5090862;28;19931;-37
2022/06/22 01:27:53;;;;;;;;;;;;;;;-146.27;100.00;64033.13;5090253;28;19919;-37
2022/06/22 01:30:37;;;;;;;;;;;;;;;-146.27;100.00;64033.13;5090763;28;19912;-37
2022/06/22 01:33:26;;;;;;;;;;;;;;;-146.27;100.00;64033.13;5090409;28;20054;-38
2022/06/22 01:35:53;;;;;;;;;;;;;;;-146.27;100.00;64033.13;5087156;28;19935;-38
2022/06/22 01:38:29;;;;;;;;;;;;;;;-146.27;100.00;64033.13;5090375;28;19912;-38
2022/06/22 01:41:02;;;;;;;;;;;;;;;-146.27;100.00;64033.13;5090333;28;19912;-37
2022/06/22 01:43:34;;;;;;;;;;;;;;;-146.27;100.00;64033.13;5090682;28;20004;-37
2022/06/22 01:46:04;;;;;;;;;;;;;;;-146.27;100.00;64033.13;5089870;28;20057;-37
2022/06/22 01:48:36;;;;;;;;;;;;;;;-146.27;100.00;64033.13;5090631;28;19932;-38
2022/06/22 01:51:13;;;;;;;;;;;;;;;-146.27;100.00;64033.13;5090403;28;19916;-38
2022/06/22 01:53:41;;;;;;;;;;;;;;;-146.27;100.00;64033.13;5094072;28;19912;-38
2022/06/22 01:56:13;;;;;;;;;;;;;;;-146.27;100.00;64033.13;5094420;28;20007;-51
2022/06/22 01:58:48;;;;;;;;;;;;;;;-146.27;100.00;64033.13;5094388;28;20596;-48
2022/06/22 02:01:26;;;;;;;;;;;;;;;-146.27;100.00;64033.13;5093589;28;19912;-48
2022/06/22 02:04:02;;;;;;;;;;;;;;;-146.27;100.00;64033.13;5093716;28;19921;-48
2022/06/22 02:09:17;;;;;;;;;;;;;;;-146.27;100.00;64033.13;5094082;28;19927;-49
2022/06/22 02:11:47;;;;;;;;;;;;;;;-146.27;100.00;64033.13;5093350;28;19916;-50
2022/06/22 02:14:16;;;;;;;;;;;;;;;-146.27;100.00;64033.13;5093684;28;20312;-49
2022/06/22 02:16:46;;;;;;;;;;;;;;;-146.27;100.00;64033.13;5093498;28;19927;-48
2022/06/22 02:19:13;;;;;;;;;;;;;;;-146.27;100.00;64033.13;5093414;28;19939;-48
2022/06/22 02:21:46;;;;;;;;;;;;;;;-146.27;100.00;64033.13;5109771;28;20010;-49
2022/06/22 02:24:13;;;;;;;;;;;;;;;-146.27;100.00;64033.13;5094146;28;19927;-50
2022/06/22 02:26:48;;;;;;;;;;;;;;;-146.27;100.00;64033.13;5093364;28;20374;-49
2022/06/22 02:29:16;;;;;;;;;;;;;;;-146.27;100.00;64033.13;5093947;28;19965;-48
2022/06/22 02:31:41;;;;;;;;;;;;;;;-146.27;100.00;64033.13;5093029;28;20404;-48
2022/06/22 02:34:07;;;;;;;;;;;;;;;-146.27;100.00;64033.13;5093354;28;19955;-49
2022/06/22 02:36:36;;;;;;;;;;;;;;;-146.27;100.00;64033.13;5093331;28;19983;-48
2022/06/22 02:39:03;;;;;;;;;;;;;;;-146.27;100.00;64033.13;5093454;28;19923;-49
2022/06/22 02:44:29;;;;;;;;;;;;;;;-146.27;100.00;64033.13;5093042;28;19919;-48
2022/06/22 02:46:55;;;;;;;;;;;;;;;-146.27;100.00;64033.13;5093225;28;20073;-49
2022/06/22 02:49:26;;;;;;;;;;;;;;;-146.27;100.00;64033.13;5093098;28;19965;-52
2022/06/22 02:51:52;;;;;;;;;;;;;;;-146.27;100.00;64033.13;5093467;28;19939;-49
2022/06/22 02:54:32;;;;;;;;;;;;;;;-146.27;100.00;64033.13;5092813;28;19916;-48
2022/06/22 02:57:26;;;;;;;;;;;;;;;-146.27;100.00;64033.13;5093339;28;19927;-49
2022/06/22 02:59:52;;;;;;;;;;;;;;;-146.27;100.00;64033.13;5088134;28;19977;-49
2022/06/22 03:02:20;;;;;;;;;;;;;;;-146.27;100.00;64033.13;5092678;28;19912;-52
2022/06/22 03:04:46;;;;;;;;;;;;;;;-146.27;100.00;64033.13;5091817;28;19951;-48
2022/06/22 03:07:12;;;;;;;;;;;;;;;-146.27;100.00;64033.13;5092913;28;19923;-50
2022/06/22 03:09:38;;;;;;;;;;;;;;;-146.27;100.00;64033.13;5092764;28;19912;-48
2022/06/22 03:12:03;;;;;;;;;;;;;;;-146.27;100.00;64033.13;5092458;28;19912;-50
2022/06/22 03:14:29;;;;;;;;;;;;;;;-146.27;100.00;64033.13;5092389;28;20359;-48
2022/06/22 03:17:23;;;;;;;;;;;;;;;-146.27;100.00;64033.13;5092386;28;19912;-51
2022/06/22 03:19:54;;;;;;;;;;;;;;;-146.27;100.00;64033.13;5084381;28;20003;-50
2022/06/22 03:22:26;;;;;;;;;;;;;;;-146.27;100.00;64033.13;5112484;28;19959;-49
2022/06/22 03:25:20;;;;;;;;;;;;;;;-146.27;100.00;64033.13;5112299;28;19912;-48
2022/06/22 03:27:47;;;;;;;;;;;;;;;-146.27;100.00;64033.13;5107465;28;19912;-49
2022/06/22 03:30:14;;;;;;;;;;;;;;;-146.27;100.00;64033.13;5112827;28;19995;-51
2022/06/22 03:33:01;;;;;;;;;;;;;;;-146.27;100.00;64033.13;5112881;28;19920;-48
2022/06/22 03:35:30;;;;;;;;;;;;;;;-146.27;100.00;64033.13;5112732;28;20002;-46
2022/06/22 03:37:59;;;;;;;;;;;;;;;-146.27;100.00;64033.13;5112692;28;19926;-49
2022/06/22 03:40:30;;;;;;;;;;;;;;;-146.27;100.00;64033.13;5112618;28;19912;-48
2022/06/22 03:42:58;;;;;;;;;;;;;;;-146.27;100.00;64033.13;5112611;28;20003;-50
2022/06/22 03:45:27;;;;;;;;;;;;;;;-146.27;100.00;64033.13;5103822;28;19916;-49
2022/06/22 03:47:52;;;;;;;;;;;;;;;-146.27;100.00;64033.13;5092157;28;19912;-49
2022/06/22 03:50:41;;;;;;;;;;;;;;;-146.27;100.00;64033.13;5091950;28;19918;-47
2022/06/22 03:53:12;;;;;;;;;;;;;;;-146.27;100.00;64033.13;5088174;28;19912;-37
2022/06/22 03:55:42;;;;;;;;;;;;;;;-146.27;100.00;64033.13;5093234;28;20269;-49
2022/06/22 03:58:09;;;;;;;;;;;;;;;-146.27;100.00;64033.13;5092887;28;19912;-36
2022/06/22 04:00:35;;;;;;;;;;;;;;;-146.27;100.00;64033.13;5093352;28;19920;-48
2022/06/22 04:03:03;;;;;;;;;;;;;;;-146.27;100.00;64033.13;5092763;28;19961;-38
2022/06/22 04:05:31;;;;;;;;;;;;;;;-146.27;100.00;64033.13;5093047;28;19916;-40
2022/06/22 04:07:57;;;;;;;;;;;;;;;-146.27;100.00;64033.13;5091620;28;19919;-37
2022/06/22 04:10:31;;;;;;;;;;;;;;;-146.27;100.00;64033.13;5092000;28;19912;-47
2022/06/22 04:12:57;;;;;;;;;;;;;;;-146.27;100.00;64033.13;5091455;28;19912;-48
2022/06/22 04:15:32;;;;;;;;;;;;;;;-146.27;100.00;64033.13;5092492;28;19919;-48
2022/06/22 04:18:20;;;;;;;;;;;;;;;-146.27;100.00;64033.13;5090992;28;19923;-48
2022/06/22 04:20:57;;;;;;;;;;;;;;;-146.27;100.00;64033.13;5100247;28;19912;-46
2022/06/22 04:23:25;;;;;;;;;;;;;;;-146.27;100.00;64033.13;5110729;28;20002;-48
2022/06/22 04:25:53;;;;;;;;;;;;;;;-146.27;100.00;64033.13;5107060;28;19922;-46
2022/06/22 04:28:19;;;;;;;;;;;;;;;-146.27;100.00;64033.13;5071078;28;20303;-49
2022/06/22 04:30:47;;;;;;;;;;;;;;;-146.27;100.00;64033.13;5085537;28;19915;-48
2022/06/22 04:33:18;;;;;;;;;;;;;;;-146.27;100.00;64033.13;5071127;28;19971;-48
2022/06/22 04:35:52;;;;;;;;;;;;;;;-146.27;100.00;64033.13;5069937;28;20020;-49
2022/06/22 04:38:31;;;;;;;;;;;;;;;-146.27;100.00;64033.13;5080486;28;19969;-47
2022/06/22 04:41:07;;;;;;;;;;;;;;;-146.27;100.00;64033.13;5088741;28;19912;-48
2022/06/22 04:43:33;;;;;;;;;;;;;;;-146.27;100.00;64033.13;5089612;28;19966;-47
2022/06/22 04:45:58;;;;;;;;;;;;;;;-146.27;100.00;64033.13;5089011;28;19991;-52
2022/06/22 04:48:26;;;;;;;;;;;;;;;-146.27;100.00;64033.13;5087560;28;19912;-51
2022/06/22 04:50:55;;;;;;;;;;;;;;;-146.27;100.00;64033.13;5087329;28;19934;-49
2022/06/22 04:53:23;;;;;;;;;;;;;;;-146.27;100.00;64033.13;5087592;28;20260;-48
2022/06/22 04:55:50;;;;;;;;;;;;;;;-146.27;100.00;64033.13;5085231;28;19923;-51
2022/06/22 04:58:41;;;;;;;;;;;;;;;-146.27;100.00;64033.13;5086545;28;19912;-48
2022/06/22 05:01:11;;;;;;;;;;;;;;;-146.27;100.00;64033.13;5084545;28;19919;-47
2022/06/22 05:03:36;;;;;;;;;;;;;;;-146.27;100.00;64033.13;5087685;28;19919;-49
2022/06/22 05:06:05;;;;;;;;;;;;;;;-146.27;100.00;64033.13;5088623;28;19916;-38
2022/06/22 05:08:37;;;;;;;;;;;;;;;-146.27;100.00;64033.13;5089900;28;20003;-38
2022/06/22 05:11:13;;;;;;;;;;;;;;;-146.27;100.00;64033.13;5088679;28;19912;-38
2022/06/22 05:13:40;;;;;;;;;;;;;;;-146.27;100.00;64033.13;5089953;28;19912;-36
2022/06/22 05:16:08;;;;;;;;;;;;;;;-146.27;100.00;64033.13;5088745;28;19919;-37
2022/06/22 05:18:35;;;;;;;;;;;;;;;-146.27;100.00;64033.13;5089880;28;20391;-37
2022/06/22 05:21:00;;;;;;;;;;;;;;;-146.27;100.00;64033.13;5101681;28;19968;-38
2022/06/22 05:23:27;;;;;;;;;;;;;;;-146.27;100.00;64033.13;5110273;28;20325;-38
2022/06/22 05:25:54;;;;;;;;;;;;;;;-146.27;100.00;64033.13;5110317;28;19915;-37
2022/06/22 05:28:39;;;;;;;;;;;;;;;-146.27;100.00;64033.13;5114374;28;20312;-37
2022/06/22 05:31:34;;;;;;;;;;;;;;;-146.27;100.00;64033.13;5114440;28;19912;-36
2022/06/22 05:34:02;;;;;;;;;;;;;;;-146.27;100.00;64033.13;5108742;28;19915;-37
2022/06/22 05:36:30;;;;;;;;;;;;;;;-146.27;100.00;64033.13;5113771;28;19928;-37
2022/06/22 05:38:56;;;;;;;;;;;;;;;-146.27;100.00;64033.13;5114508;28;20295;-38
2022/06/22 05:41:27;;;;;;;;;;;;;;;-146.27;100.00;64033.13;5114456;28;19916;-38
2022/06/22 05:43:54;;;;;;;;;;;;;;;-146.27;100.00;64033.13;5113834;28;20045;-37
2022/06/22 05:46:19;;;;;;;;;;;;;;;-146.27;100.00;64033.13;5113910;28;19916;-38
2022/06/22 05:48:46;;;;;;;;;;;;;;;-146.27;100.00;64033.13;5113820;28;19918;-37
2022/06/22 05:51:30;;;;;;;;;;;;;;;-146.27;100.00;64033.13;5114199;28;20379;-37
2022/06/22 05:54:14;;;;;;;;;;;;;;;-146.27;100.00;64033.13;5113979;28;20053;-37
2022/06/22 05:56:42;;;;;;;;;;;;;;;-146.27;100.00;64033.13;5114155;28;19912;-36
2022/06/22 05:59:24;;;;;;;;;;;;;;;-146.27;100.00;64033.13;5113811;28;19954;-37
2022/06/22 06:02:05;;;;;;;;;;;;;;;-146.27;100.00;64033.13;5113877;28;19922;-38
2022/06/22 06:04:31;;;;;;;;;;;;;;;-146.27;100.00;64033.13;5113872;28;20436;-37
2022/06/22 06:06:59;;;;;;;;;;;;;;;-146.27;100.00;64033.13;5113517;28;19916;-37
2022/06/22 06:09:26;;;;;;;;;;;;;;;-146.27;100.00;64033.13;5113693;28;19912;-37
2022/06/22 06:11:58;;;;;;;;;;;;;;;-146.27;100.00;64033.13;5113628;28;20403;-37
2022/06/22 06:14:30;;;;;;;;;;;;;;;-146.27;100.00;64033.13;5113962;28;19923;-37
2022/06/22 06:16:58;;;;;;;;;;;;;;;-146.27;100.00;64033.13;5113662;28;19919;-37
2022/06/22 06:19:26;;;;;;;;;;;;;;;-146.27;100.00;64033.13;5114025;28;19912;-36
2022/06/22 06:21:54;;;;;;;;;;;;;;;-146.27;100.00;64033.13;5094908;28;19912;-36
2022/06/22 06:24:22;;;;;;;;;;;;;;;-146.27;100.00;64033.13;5093356;28;19920;-38
2022/06/22 06:29:41;;;;;;;;;;;;;;;-146.27;100.00;64033.13;5093497;28;19947;-36
2022/06/22 06:32:18;;;;;;;;;;;;;;;-146.27;100.00;64033.13;5092809;28;19975;-36
2022/06/22 06:34:51;;;;;;;;;;;;;;;-146.27;100.00;64033.13;5092379;28;20363;-38
2022/06/22 06:37:21;;;;;;;;;;;;;;;-146.27;100.00;64033.13;5092550;28;19912;-38
2022/06/22 06:39:51;;;;;;;;;;;;;;;-146.27;100.00;64033.13;5091769;28;20126;-37
2022/06/22 06:42:24;;;;;;;;;;;;;;;-146.27;100.00;64033.13;5092939;28;19912;-38
2022/06/22 06:44:51;;;;;;;;;;;;;;;-146.27;100.00;64033.13;5093183;28;19912;-37
2022/06/22 06:47:37;;;;;;;;;;;;;;;-146.27;100.00;64033.13;5092458;28;19916;-37
2022/06/22 06:50:26;;;;;;;;;;;;;;;-146.27;100.00;64033.13;5092041;28;19924;-37
2022/06/22 06:52:51;;;;;;;;;;;;;;;-146.27;100.00;64033.13;5092803;28;19912;-37
2022/06/22 06:55:24;;;;;;;;;;;;;;;-146.27;100.00;64033.13;5093386;28;20448;-38
2022/06/22 06:57:52;;;;;;;;;;;;;;;-146.27;100.00;64033.13;5092882;28;19918;-38
2022/06/22 07:00:17;;;;;;;;;;;;;;;-146.27;100.00;64033.13;5092583;28;19919;-37
2022/06/22 07:02:43;;;;;;;;;;;;;;;-146.27;100.00;64033.13;5094917;28;20832;-38
2022/06/22 07:05:14;;;;;;;;;;;;;;;-146.27;100.00;64033.13;5092025;28;19912;-37
2022/06/22 07:07:53;;;;;;;;;;;;;;;-146.27;100.00;64033.13;5097131;28;20619;-37
2022/06/22 07:10:37;;;;;;;;;;;;;;;-146.27;100.00;64033.13;5092713;28;20376;-37
2022/06/22 07:13:20;;;;;;;;;;;;;;;-146.27;100.00;64033.13;5091938;28;19912;-38
2022/06/22 07:15:49;;;;;;;;;;;;;;;-146.27;100.00;64033.13;5095408;28;20378;-36
2022/06/22 07:18:24;;;;;;;;;;;;;;;-146.27;100.00;64033.13;5098144;28;19915;-38
2022/06/22 07:20:56;;;;;;;;;;;;;;;-146.27;100.00;64033.13;5091460;28;19912;-38
2022/06/22 07:23:27;;;;;;;;;;;;;;;-146.27;100.00;64033.13;5109024;28;19920;-39
2022/06/22 07:25:55;;;;;;;;;;;;;;;-146.27;100.00;64033.13;5098718;28;20412;-37
2022/06/22 07:28:36;;;;;;;;;;;;;;;-146.27;100.00;64033.13;5101144;28;20022;-38
2022/06/22 07:31:16;;;;;;;;;;;;;;;-146.27;100.00;64033.13;5091761;28;20394;-38
2022/06/22 07:33:51;;;;;;;;;;;;;;;-146.27;100.00;64033.13;5102811;28;19916;-38
2022/06/22 07:36:20;;;;;;;;;;;;;;;-146.27;100.00;64033.13;5108728;28;19947;-38
2022/06/22 07:38:57;;;;;;;;;;;;;;;-146.27;100.00;64033.13;5095389;28;20003;-37
2022/06/22 07:41:23;;;;;;;;;;;;;;;-146.27;100.00;64033.13;5092790;28;20145;-37
2022/06/22 07:44:26;;;;;;;;;;;;;;;-146.27;100.00;64033.13;5108462;28;20065;-37
2022/06/22 07:46:52;;;;;;;;;;;;;;;-146.27;100.00;64033.13;5061612;28;20016;-37
2022/06/22 07:49:26;;;;;;;;;;;;;;;-146.27;100.00;64033.13;5051751;28;19912;-37
2022/06/22 07:51:56;;;;;;;;;;;;;;;-146.27;100.00;64033.13;5059032;28;19911;-37
2022/06/22 07:54:37;;;;;;;;;;;;;;;-146.27;100.00;64033.13;5103462;28;19912;-37
2022/06/22 07:57:12;;;;;;;;;;;;;;;-146.27;100.00;64033.13;5105956;28;19915;-37
2022/06/22 07:59:41;;;;;;;;;;;;;;;-146.27;100.00;64033.13;5094865;28;20322;-37
2022/06/22 08:02:12;;;;;;;;;;;;;;;-146.27;100.00;64033.13;5091341;28;19912;-38
2022/06/22 08:04:41;;;;;;;;;;;;;;;-146.27;100.00;64033.13;5091598;28;19912;-38
2022/06/22 08:07:10;;;;;;;;;;;;;;;-146.27;100.00;64033.13;5091666;28;19916;-37
2022/06/22 08:09:40;;;;;;;;;;;;;;;-146.27;100.00;64033.13;5091402;28;20272;-38
2022/06/22 08:12:09;;;;;;;;;;;;;;;-146.27;100.00;64033.13;5090896;28;19912;-38
2022/06/22 08:14:38;;;;;;;;;;;;;;;-146.27;100.00;64033.13;5090708;28;20397;-37
2022/06/22 08:17:09;;;;;;;;;;;;;;;-146.27;100.00;64033.13;5091264;28;19912;-37
2022/06/22 08:19:35;;;;;;;;;;;;;;;-146.27;100.00;64033.13;5090969;28;20376;-37
2022/06/22 08:22:04;;;;;;;;;;;;;;;-146.27;100.00;64033.13;5109157;28;19990;-38
2022/06/22 08:24:32;;;;;;;;;;;;;;;-146.27;100.00;64033.13;5094953;28;19926;-37
2022/06/22 08:26:58;;;;;;;;;;;;;;;-146.27;100.00;64033.13;5084484;28;19998;-37
2022/06/22 08:29:25;;;;;;;;;;;;;;;-146.27;100.00;64033.13;5092967;28;19920;-37
2022/06/22 08:32:03;;;;;;;;;;;;;;;-146.27;100.00;64033.13;5100688;28;20371;-38
2022/06/22 08:34:34;;;;;;;;;;;;;;;-146.27;100.00;64033.13;5090272;28;19920;-42
2022/06/22 08:37:06;;;;;;;;;;;;;;;-146.27;100.00;64033.13;5090745;28;20393;-38
2022/06/22 08:39:34;;;;;;;;;;;;;;;-146.27;100.00;64033.13;5070434;28;19912;-36
2022/06/22 08:42:19;;;;;;;;;;;;;;;-146.27;100.00;64033.13;5070633;28;20241;-40
2022/06/22 08:45:03;;;;;;;;;;;;;;;-146.27;100.00;64033.13;5070613;28;19919;-37
2022/06/22 08:47:42;;;;;;;;;;;;;;;-146.27;100.00;64033.13;5070946;28;19917;-51
2022/06/22 08:50:07;;;;;;;;;;;;;;;-146.27;100.00;64033.13;5070302;28;20359;-51
2022/06/22 08:52:51;;;;;;;;;;;;;;;-146.27;100.00;64033.13;5068741;28;19924;-51
2022/06/22 08:55:29;;;;;;;;;;;;;;;-146.27;100.00;64033.13;5088746;28;19918;-52
2022/06/22 08:58:00;;;;;;;;;;;;;;;-146.27;100.00;64033.13;5090504;28;19912;-52
2022/06/22 09:00:36;;;;;;;;;;;;;;;-146.27;100.00;64033.13;5090526;28;20044;-52
2022/06/22 09:03:11;;;;;;;;;;;;;;;-146.27;100.00;64033.13;5088493;28;19912;-51
2022/06/22 09:05:54;;;;;;;;;;;;;;;-146.27;100.00;64033.13;5088450;28;19919;-51
2022/06/22 09:08:34;;;;;;;;;;;;;;;-146.27;100.00;64033.13;5088425;28;20175;-52
2022/06/22 09:11:06;;;;;;;;;;;;;;;-146.27;100.00;64033.13;5088326;28;20376;-51
2022/06/22 09:13:41;;;;;;;;;;;;;;;-146.27;100.00;64033.13;5088545;28;19919;-51
2022/06/22 09:16:25;;;;;;;;;;;;;;;-146.27;100.00;64033.13;5088234;28;20352;-49
2022/06/22 09:19:09;;;;;;;;;;;;;;;-146.27;100.00;64033.13;5089024;28;19935;-50
2022/06/22 09:21:37;;;;;;;;;;;;;;;-146.27;100.00;64033.13;5106452;28;19919;-52
2022/06/22 09:24:17;;;;;;;;;;;;;;;-146.27;100.00;64033.13;5110692;28;20444;-51
2022/06/22 09:26:51;;;;;;;;;;;;;;;-146.27;100.00;64033.13;5110567;28;20377;-51
2022/06/22 09:29:29;;;;;;;;;;;;;;;-146.27;100.00;64033.13;5110483;28;20080;-52
2022/06/22 09:32:10;;;;;;;;;;;;;;;-146.27;100.00;64033.13;5110693;28;19924;-51
2022/06/22 09:34:48;;;;;;;;;;;;;;;-146.27;100.00;64033.13;5110409;28;19947;-50
2022/06/22 09:37:13;;;;;;;;;;;;;;;-146.27;100.00;64033.13;5110781;28;19926;-51
2022/06/22 09:39:51;;;;;;;;;;;;;;;-146.27;100.00;64033.13;5110475;28;19912;-50
2022/06/22 09:42:19;;;;;;;;;;;;;;;-146.27;100.00;64033.13;5110251;28;19911;-50
2022/06/22 09:45:03;;;;;;;;;;;;;;;-146.27;100.00;64033.13;5110173;28;19912;-50
2022/06/22 09:47:40;;;;;;;;;;;;;;;-146.27;100.00;64033.13;5110699;28;19972;-49
2022/06/22 09:50:08;;;;;;;;;;;;;;;-146.27;100.00;64033.13;5110286;28;19918;-51
2022/06/22 09:52:52;;;;;;;;;;;;;;;-146.27;100.00;64033.13;5110161;28;19912;-50
2022/06/22 09:58:36;;;;;;;;;;;;;;;-146.27;100.00;64033.13;5090452;28;20390;-51
2022/06/22 10:01:19;;;;;;;;;;;;;;;-146.27;100.00;64033.13;5089472;28;19912;-51
2022/06/22 10:04:00;;;;;;;;;;;;;;;-146.27;100.00;64033.13;5090091;28;20018;-50
2022/06/22 10:06:32;;;;;;;;;;;;;;;-146.27;100.00;64033.13;5089811;28;20069;-50
2022/06/22 10:09:00;;;;;;;;;;;;;;;-146.27;100.00;64033.13;5089798;28;19919;-52
2022/06/22 10:11:40;;;;;;;;;;;;;;;-146.27;100.00;64033.13;5089426;28;19912;-52
2022/06/22 10:14:17;;;;;;;;;;;;;;;-146.27;100.00;64033.13;5091459;28;19912;-51
2022/06/22 10:17:01;;;;;;;;;;;;;;;-146.27;100.00;64033.13;5093385;28;19916;-50
2022/06/22 10:19:26;;;;;;;;;;;;;;;-146.27;100.00;64033.13;5093615;28;20307;-50
2022/06/22 10:22:03;;;;;;;;;;;;;;;-146.27;100.00;64033.13;5112670;28;19911;-52
2022/06/22 10:24:47;;;;;;;;;;;;;;;-146.27;100.00;64033.13;5113951;28;19935;-50
2022/06/22 10:27:13;;;;;;;;;;;;;;;-146.27;100.00;64033.13;5113217;28;19919;-52
2022/06/22 10:29:59;;;;;;;;;;;;;;;-146.27;100.00;64033.13;5113592;28;19961;-52
2022/06/22 10:32:33;;;;;;;;;;;;;;;-146.27;100.00;64033.13;5113149;28;20323;-51
2022/06/22 10:35:17;;;;;;;;;;;;;;;-146.27;100.00;64033.13;5113368;28;19927;-53
2022/06/22 10:37:52;;;;;;;;;;;;;;;-146.27;100.00;64033.13;5113827;28;19938;-49
2022/06/22 10:46:18;;;;;;;;;;;;;;;-146.27;100.00;64033.13;5113320;28;19922;-50
2022/06/22 10:49:02;;;;;;;;;;;;;;;-146.27;100.00;64033.13;5113669;28;20010;-52
2022/06/22 10:51:31;;;;;;;;;;;;;;;-146.27;100.00;64033.13;5113236;28;19912;-51
2022/06/22 10:54:14;;;;;;;;;;;;;;;-146.27;100.00;64033.13;5103505;28;19991;-50
2022/06/22 10:57:06;;;;;;;;;;;;;;;-146.27;100.00;64033.13;5092594;28;20364;-51
2022/06/22 10:59:43;;;;;;;;;;;;;;;-146.27;100.00;64033.13;5084609;28;20337;-52
2022/06/22 11:02:08;;;;;;;;;;;;;;;-146.27;100.00;64033.13;5092984;28;19912;-49
2022/06/22 11:04:40;;;;;;;;;;;;;;;-146.27;100.00;64033.13;5092613;28;20389;-50
2022/06/22 11:07:20;;;;;;;;;;;;;;;-146.27;100.00;64033.13;5092458;28;19916;-51
2022/06/22 11:09:45;;;;;;;;;;;;;;;-146.27;100.00;64033.13;5092813;28;19955;-47
2022/06/22 11:12:23;;;;;;;;;;;;;;;-146.27;100.00;64033.13;5092398;28;19951;-51
2022/06/22 11:14:51;;;;;;;;;;;;;;;-146.27;100.00;64033.13;5091918;28;19981;-48
2022/06/22 11:17:25;;;;;;;;;;;;;;;-146.27;100.00;64033.13;5092188;28;19993;-49
2022/06/22 11:19:53;;;;;;;;;;;;;;;-146.27;100.00;64033.13;5094715;28;19912;-50
2022/06/22 11:22:33;;;;;;;;;;;;;;;-146.27;100.00;64033.13;5112704;28;19915;-47
2022/06/22 11:25:12;;;;;;;;;;;;;;;-146.27;100.00;64033.13;5111897;28;20452;-48
2022/06/22 11:31:07;;;;;;;;;;;;;;;-146.27;100.00;64033.13;5112943;28;19919;-51
2022/06/22 11:33:35;;;;;;;;;;;;;;;-146.27;100.00;64033.13;5113053;28;19920;-47
2022/06/22 11:36:19;;;;;;;;;;;;;;;-146.27;100.00;64033.13;5111847;28;20268;-49
2022/06/22 11:39:02;;;;;;;;;;;;;;;-146.27;100.00;64033.13;5112411;28;19912;-51
2022/06/22 11:41:30;;;;;;;;;;;;;;;-146.27;100.00;64033.13;5112601;28;19911;-50
2022/06/22 11:44:14;;;;;;;;;;;;;;;-146.27;100.00;64033.13;5112588;28;20271;-51
2022/06/22 11:46:47;;;;;;;;;;;;;;;-146.27;100.00;64033.13;5111934;28;20317;-51
2022/06/22 11:49:35;;;;;;;;;;;;;;;-146.27;100.00;64033.13;5112502;28;20314;-48
2022/06/22 11:52:12;;;;;;;;;;;;;;;-146.27;100.00;64033.13;5107286;28;20133;-47
2022/06/22 11:54:37;;;;;;;;;;;;;;;-146.27;100.00;64033.13;5092306;28;19912;-47
2022/06/22 11:57:21;;;;;;;;;;;;;;;-146.27;100.00;64033.13;5091613;28;19916;-48
2022/06/22 11:59:49;;;;;;;;;;;;;;;-146.27;100.00;64033.13;5091167;28;20014;-49
2022/06/22 12:02:24;;;;;;;;;;;;;;;-146.27;100.00;64033.13;5091502;28;19912;-49
2022/06/22 12:04:49;;;;;;;;;;;;;;;-146.27;100.00;64033.13;5091953;28;19923;-48
2022/06/22 12:07:23;;;;;;;;;;;;;;;-146.27;100.00;64033.13;5092066;28;19916;-47
2022/06/22 12:09:51;;;;;;;;;;;;;;;-146.27;100.00;64033.13;5090927;28;19948;-49
2022/06/22 12:12:46;;;;;;;;;;;;;;;-146.27;100.00;64033.13;5091296;28;19912;-49
2022/06/22 12:15:23;;;;;;;;;;;;;;;-146.27;100.00;64033.13;5091234;28;19912;-49
2022/06/22 12:18:00;;;;;;;;;;;;;;;-146.27;100.00;64033.13;5091377;28;19912;-47
2022/06/22 12:20:31;;;;;;;;;;;;;;;-146.27;100.00;64033.13;5098197;28;20002;-48
2022/06/22 12:23:08;;;;;;;;;;;;;;;-146.27;100.00;64033.13;5111913;28;20290;-48
2022/06/22 12:25:58;;;;;;;;;;;;;;;-146.27;100.00;64033.13;5111639;28;19969;-49
2022/06/22 12:28:26;;;;;;;;;;;;;;;-146.27;100.00;64033.13;5111440;28;19988;-51
2022/06/22 12:30:51;;;;;;;;;;;;;;;-146.27;100.00;64033.13;5111218;28;19934;-50
2022/06/22 12:33:22;;;;;;;;;;;;;;;-146.27;100.00;64033.13;5111872;28;20408;-50
2022/06/22 12:35:51;;;;;;;;;;;;;;;-146.27;100.00;64033.13;5110532;28;20004;-48
2022/06/22 12:38:29;;;;;;;;;;;;;;;-146.27;100.00;64033.13;5111593;28;19912;-49
2022/06/22 12:40:58;;;;;;;;;;;;;;;-146.27;100.00;64033.13;5110682;28;19911;-51
2022/06/22 12:43:26;;;;;;;;;;;;;;;-146.27;100.00;64033.13;5111205;28;19973;-51
2022/06/22 12:45:56;;;;;;;;;;;;;;;-146.27;100.00;64033.13;5111419;28;19972;-49
2022/06/22 12:48:21;;;;;;;;;;;;;;;-146.27;100.00;64033.13;5111626;28;19916;-48
2022/06/22 12:51:05;;;;;;;;;;;;;;;-146.27;100.00;64033.13;5111341;28;19945;-48
2022/06/22 12:53:59;;;;;;;;;;;;;;;-146.27;100.00;64033.13;5111768;28;19969;-49
2022/06/22 12:56:34;;;;;;;;;;;;;;;-146.27;100.00;64033.13;5106454;28;19994;-50
2022/06/22 12:59:18;;;;;;;;;;;;;;;-146.27;100.00;64033.13;5111193;28;19941;-50
2022/06/22 13:01:44;;;;;;;;;;;;;;;-146.27;100.00;64033.13;5111060;28;20018;-48
2022/06/22 13:04:11;;;;;;;;;;;;;;;-146.27;100.00;64033.13;5111130;28;19995;-50
2022/06/22 13:06:38;;;;;;;;;;;;;;;-146.27;100.00;64033.13;5097423;28;19923;-37
2022/06/22 13:09:04;;;;;;;;;;;;;;;-146.27;100.00;64033.13;5089838;28;20415;-38
2022/06/22 13:11:31;;;;;;;;;;;;;;;-146.27;100.00;64033.13;5089559;28;20291;-37